Station Historical Data
Daily Summary for June 9, 2017 Units:  English    Metric   Both
« Previous Day
Next Day »
Daily Weekly Monthly Yearly Custom
  High: Low: Average:
Temperature: 83.3 °F 62.9 °F 71.9 °F
Dew Point: 64.3 °F 57.8 °F 60.4 °F
Humidity: 92% 42% 69%
Wind Speed: 1.0mph 0.0mph 0mph
Wind Gust: 5.0mph - -
Wind- - NW
Pressure: 30.01 in 29.89 in -
Precipitation: 0.00 in    
Historical Graphs
 
 
Tabular Data for June 9, 2017
Time Temperature Dew Point Pressure Wind Wind Speed Wind Gust Humidity Rainfall Rate (Hourly) solar Conditions
00:00 67.3 °F 60.9 °F 29.90 in Calm     80% 0.00 in WeatherDisplay:10.37 W/m2 SCT
00:10 67.3 °F 60.6 °F 29.90 in Calm     79% 0.00 in WeatherDisplay:10.37 W/m2 SCT
00:20 67.2 °F 60.8 °F 29.90 in Calm     80% 0.00 in WeatherDisplay:10.37 W/m2 SCT
00:30 67.1 °F 60.7 °F 29.90 in Calm   1.0 mph 80% 0.00 in WeatherDisplay:10.37 W/m2 SCT
00:40 67.0 °F 60.6 °F 29.90 in Calm     80% 0.00 in WeatherDisplay:10.37 W/m2 SCT
00:50 66.9 °F 60.9 °F 29.90 in Calm     81% 0.00 in WeatherDisplay:10.37 W/m2 SCT
01:00 66.8 °F 60.8 °F 29.90 in Calm     81% 0.00 in WeatherDisplay:10.37 W/m2 SCT
01:10 66.6 °F 60.6 °F 29.90 in Calm     81% 0.00 in WeatherDisplay:10.37 W/m2 SCT
01:20 66.5 °F 60.8 °F 29.90 in Calm     82% 0.00 in WeatherDisplay:10.37 W/m2 SCT
01:30 66.3 °F 61.0 °F 29.90 in Calm     83% 0.00 in WeatherDisplay:10.37 W/m2 SCT
01:40 66.2 °F 60.9 °F 29.90 in Calm     83% 0.00 in WeatherDisplay:10.37 W/m2 SCT
01:50 66.2 °F 60.9 °F 29.90 in Calm     83% 0.00 in WeatherDisplay:10.37 W/m2 SCT
02:00 66.1 °F 60.7 °F 29.90 in Calm   1.0 mph 83% 0.00 in WeatherDisplay:10.37 W/m2 SCT
02:10 65.9 °F 60.9 °F 29.89 in Calm   1.0 mph 84% 0.00 in WeatherDisplay:10.37 W/m2 SCT
02:20 65.7 °F 60.7 °F 29.89 in Calm     84% 0.00 in WeatherDisplay:10.37 W/m2 SCT
02:30 65.6 °F 60.6 °F 29.89 in Calm   1.0 mph 84% 0.00 in WeatherDisplay:10.37 W/m2 SCT
02:40 65.5 °F 60.9 °F 29.89 in Calm   1.0 mph 85% 0.00 in WeatherDisplay:10.37 W/m2 SCT
02:50 65.3 °F 60.7 °F 29.89 in Calm   1.0 mph 85% 0.00 in WeatherDisplay:10.37 W/m2 SCT
03:00 65.2 °F 60.6 °F 29.89 in Calm     85% 0.00 in WeatherDisplay:10.37 W/m2 SCT
03:10 65.1 °F 60.8 °F 29.89 in Calm     86% 0.00 in WeatherDisplay:10.37 W/m2 SCT
03:20 64.7 °F 60.5 °F 29.89 in Calm     86% 0.00 in WeatherDisplay:10.37 W/m2 SCT
03:30 64.2 °F 60.3 °F 29.89 in Calm     87% 0.00 in WeatherDisplay:10.37 W/m2 SCT
03:40 63.7 °F 59.8 °F 29.89 in Calm     87% 0.00 in WeatherDisplay:10.37 W/m2 SCT
03:50 62.9 °F 59.0 °F 29.89 in Calm     87% 0.00 in WeatherDisplay:10.37 W/m2 SCT
04:00 62.9 °F 59.0 °F 29.90 in Calm     87% 0.00 in WeatherDisplay:10.37 W/m2 SCT
04:10 62.9 °F 59.0 °F 29.90 in Calm     87% 0.00 in WeatherDisplay:10.37 W/m2 SCT
04:20 62.9 °F 59.0 °F 29.90 in Calm     87% 0.00 in WeatherDisplay:10.37 W/m2 SCT
04:30 62.9 °F 59.0 °F 29.90 in Calm     87% 0.00 in WeatherDisplay:10.37 W/m2 SCT
04:40 62.9 °F 59.0 °F 29.90 in Calm     87% 0.00 in WeatherDisplay:10.37 W/m2 SCT
04:50 62.9 °F 59.0 °F 29.90 in Calm     87% 0.00 in WeatherDisplay:10.37 W/m2 SCT
05:00 62.9 °F 59.0 °F 29.91 in Calm     87% 0.00 in WeatherDisplay:10.37 W/m2 SCT
05:10 62.9 °F 59.0 °F 29.91 in Calm     87% 0.00 in WeatherDisplay:10.37 W/m2 SCT
05:20 62.9 °F 59.0 °F 29.91 in Calm     87% 0.00 in WeatherDisplay:10.37 W/m2 SCT
05:30 62.9 °F 59.0 °F 29.91 in Calm     87% 0.00 in WeatherDisplay:10.37 W/m2 SCT
05:40 62.9 °F 59.0 °F 29.92 in Calm     87% 0.00 in WeatherDisplay:10.37 W/m2 SCT
05:50 62.9 °F 59.0 °F 29.92 in Calm     87% 0.00 in WeatherDisplay:10.37 W/m2 SCT
06:00 62.9 °F 59.0 °F 29.92 in Calm     87% 0.00 in WeatherDisplay:10.37 W/m2 SCT
06:10 62.9 °F 59.0 °F 29.93 in Calm     87% 0.00 in WeatherDisplay:10.37 W/m2 SCT
06:20 62.9 °F 59.0 °F 29.94 in Calm     87% 0.00 in WeatherDisplay:10.37 W/m2 SCT
06:30 62.9 °F 59.0 °F 29.94 in Calm     87% 0.00 in WeatherDisplay:10.37 W/m2 SCT
06:40 62.9 °F 59.0 °F 29.94 in Calm     87% 0.00 in WeatherDisplay:10.37 W/m2 SCT
06:50 62.9 °F 59.0 °F 29.95 in Calm     87% 0.00 in WeatherDisplay:10.37 W/m2 SCT
07:00 62.9 °F 59.0 °F 29.95 in Calm     87% 0.00 in WeatherDisplay:10.37 W/m2 SCT
07:10 62.9 °F 59.0 °F 29.95 in Calm     87% 0.00 in WeatherDisplay:10.37 W/m2 SCT
07:20 62.9 °F 59.0 °F 29.96 in Calm     87% 0.00 in WeatherDisplay:10.37 W/m2 SCT
07:30 62.9 °F 59.0 °F 29.96 in Calm     87% 0.00 in WeatherDisplay:10.37 W/m2 SCT
07:40 62.9 °F 59.0 °F 29.96 in Calm     87% 0.00 in WeatherDisplay:10.37 W/m2 SCT
07:50 63.3 °F 60.9 °F 29.97 in Calm     92% 0.00 in WeatherDisplay:10.37 W/m2 SCT
08:00 63.7 °F 61.3 °F 29.97 in Calm     92% 0.00 in WeatherDisplay:10.37 W/m2 SCT
08:10 64.1 °F 61.1 °F 29.97 in Calm   1.0 mph 90% 0.00 in WeatherDisplay:10.37 W/m2 SCT
08:20 64.8 °F 61.5 °F 29.97 in Calm     89% 0.00 in WeatherDisplay:10.37 W/m2 SCT
08:30 65.5 °F 61.8 °F 29.98 in Calm   1.0 mph 88% 0.00 in WeatherDisplay:10.37 W/m2 SCT
08:40 66.6 °F 62.2 °F 29.98 in Calm     86% 0.00 in WeatherDisplay:10.37 W/m2 SCT
08:50 67.4 °F 62.4 °F 29.98 in Calm     84% 0.00 in WeatherDisplay:10.37 W/m2 SCT
09:00 67.9 °F 62.5 °F 29.98 in Calm     83% 0.00 in WeatherDisplay:10.37 W/m2 SCT
09:10 68.5 °F 62.8 °F 29.98 in Calm   1.0 mph 82% 0.00 in WeatherDisplay:10.37 W/m2 SCT
09:20 69.0 °F 63.0 °F 29.99 in Calm   1.0 mph 81% 0.00 in WeatherDisplay:10.37 W/m2 SCT
09:30 69.5 °F 63.4 °F 29.99 in Calm   1.0 mph 81% 0.00 in WeatherDisplay:10.37 W/m2 SCT
09:40 70.3 °F 63.1 °F 29.99 in Calm   1.0 mph 78% 0.00 in WeatherDisplay:10.37 W/m2 SCT
09:50 70.9 °F 63.0 °F 29.99 in Calm   1.0 mph 76% 0.00 in WeatherDisplay:10.37 W/m2 SCT
10:00 71.7 °F 63.8 °F 29.99 in Calm     76% 0.00 in WeatherDisplay:10.37 W/m2 SCT
10:10 72.8 °F 63.2 °F 29.99 in Calm   2.0 mph 72% 0.00 in WeatherDisplay:10.37 W/m2 SCT
10:20 74.4 °F 64.3 °F 29.99 in Calm     71% 0.00 in WeatherDisplay:10.37 W/m2 SCT
10:30 75.5 °F 64.2 °F 29.99 in Calm   1.0 mph 68% 0.00 in WeatherDisplay:10.37 W/m2 SCT
10:40 76.1 °F 63.5 °F 29.99 in Calm   1.0 mph 65% 0.00 in WeatherDisplay:10.37 W/m2 SCT
10:50 76.4 °F 64.2 °F 29.99 in Calm   1.0 mph 66% 0.00 in WeatherDisplay:10.37 W/m2 SCT
11:00 76.4 °F 62.4 °F 29.99 in Calm   1.0 mph 62% 0.00 in WeatherDisplay:10.37 W/m2 SCT
11:10 76.6 °F 63.1 °F 29.99 in Calm   2.0 mph 63% 0.00 in WeatherDisplay:10.37 W/m2 SCT
11:20 77.4 °F 64.3 °F 29.99 in Calm   1.0 mph 64% 0.00 in WeatherDisplay:10.37 W/m2 SCT
11:30 76.7 °F 60.3 °F 29.99 in Calm   2.0 mph 57% 0.00 in WeatherDisplay:10.37 W/m2 SCT
11:40 76.9 °F 61.9 °F 29.99 in Calm   2.0 mph 60% 0.00 in WeatherDisplay:10.37 W/m2 SCT
11:50 76.6 °F 61.2 °F 29.99 in Calm   2.0 mph 59% 0.00 in WeatherDisplay:10.37 W/m2 SCT
12:00 77.2 °F 60.2 °F 29.99 in Calm   2.0 mph 56% 0.00 in WeatherDisplay:10.37 W/m2 SCT
12:10 76.8 °F 62.3 °F 29.99 in Calm   2.0 mph 61% 0.00 in WeatherDisplay:10.37 W/m2 SCT
12:20 78.2 °F 61.2 °F 29.99 in Calm   1.0 mph 56% 0.00 in WeatherDisplay:10.37 W/m2 SCT
12:30 79.0 °F 62.4 °F 29.99 in Calm   1.0 mph 57% 0.00 in WeatherDisplay:10.37 W/m2 SCT
12:40 79.8 °F 59.5 °F 29.98 in Calm   1.0 mph 50% 0.00 in WeatherDisplay:10.37 W/m2 SCT
12:50 81.4 °F 61.0 °F 29.98 in Calm   5.0 mph 50% 0.00 in WeatherDisplay:10.37 W/m2 SCT
13:00 81.1 °F 59.5 °F 29.98 in Calm   3.0 mph 48% 0.00 in WeatherDisplay:10.37 W/m2 SCT
13:10 80.8 °F 59.9 °F 29.98 in NW 1.0 mph 5.0 mph 49% 0.00 in WeatherDisplay:10.37 W/m2 SCT
13:20 81.9 °F 60.9 °F 29.98 in Calm   2.0 mph 49% 0.00 in WeatherDisplay:10.37 W/m2 SCT
13:30 82.0 °F 60.9 °F 29.98 in Calm   1.0 mph 49% 0.00 in WeatherDisplay:10.37 W/m2 SCT
13:40 81.2 °F 59.0 °F 29.98 in Calm   5.0 mph 47% 0.00 in WeatherDisplay:10.37 W/m2 SCT
13:50 81.0 °F 60.1 °F 29.97 in Calm   2.0 mph 49% 0.00 in WeatherDisplay:10.37 W/m2 SCT
14:00 81.7 °F 60.7 °F 29.97 in Calm   2.0 mph 49% 0.00 in WeatherDisplay:10.37 W/m2 SCT
14:10 82.1 °F 60.5 °F 29.97 in Calm   2.0 mph 48% 0.00 in WeatherDisplay:10.37 W/m2 SCT
14:20 82.1 °F 58.0 °F 29.97 in Calm   2.0 mph 44% 0.00 in WeatherDisplay:10.37 W/m2 SCT
14:30 81.2 °F 60.3 °F 29.96 in Calm   2.0 mph 49% 0.00 in WeatherDisplay:10.37 W/m2 SCT
14:40 81.7 °F 60.1 °F 29.96 in Calm   2.0 mph 48% 0.00 in WeatherDisplay:10.37 W/m2 SCT
14:50 82.3 °F 60.0 °F 29.96 in Calm   2.0 mph 47% 0.00 in WeatherDisplay:10.37 W/m2 SCT
15:00 81.4 °F 58.6 °F 29.96 in Calm   2.0 mph 46% 0.00 in WeatherDisplay:10.37 W/m2 SCT
15:10 80.9 °F 60.5 °F 29.96 in Calm   2.0 mph 50% 0.00 in WeatherDisplay:10.37 W/m2 SCT
15:20 81.4 °F 58.6 °F 29.96 in Calm   2.0 mph 46% 0.00 in WeatherDisplay:10.37 W/m2 SCT
15:30 81.2 °F 59.6 °F 29.96 in Calm   2.0 mph 48% 0.00 in WeatherDisplay:10.37 W/m2 SCT
15:40 81.6 °F 58.8 °F 29.96 in Calm   5.0 mph 46% 0.00 in WeatherDisplay:10.37 W/m2 SCT
15:50 81.1 °F 59.6 °F 29.95 in Calm   1.0 mph 48% 0.00 in WeatherDisplay:10.37 W/m2 SCT
16:00 80.1 °F 59.2 °F 29.95 in Calm   1.0 mph 49% 0.00 in WeatherDisplay:10.37 W/m2 SCT
16:10 79.5 °F 59.8 °F 29.95 in Calm   2.0 mph 51% 0.00 in WeatherDisplay:10.37 W/m2 SCT
16:20 79.2 °F 60.1 °F 29.95 in Calm   1.0 mph 52% 0.00 in WeatherDisplay:10.37 W/m2 SCT
16:30 79.4 °F 59.7 °F 29.95 in Calm   2.0 mph 51% 0.00 in WeatherDisplay:10.37 W/m2 SCT
16:40 79.8 °F 58.9 °F 29.94 in Calm   2.0 mph 49% 0.00 in WeatherDisplay:10.37 W/m2 SCT
16:50 80.6 °F 59.7 °F 29.94 in Calm   1.0 mph 49% 0.00 in WeatherDisplay:10.37 W/m2 SCT
17:00 82.4 °F 58.9 °F 29.94 in Calm   3.0 mph 45% 0.00 in WeatherDisplay:10.37 W/m2 SCT
17:10 83.3 °F 57.8 °F 29.94 in Calm   1.0 mph 42% 0.00 in WeatherDisplay:10.37 W/m2 SCT
17:20 82.3 °F 59.4 °F 29.94 in Calm   1.0 mph 46% 0.00 in WeatherDisplay:10.37 W/m2 SCT
17:30 81.4 °F 59.8 °F 29.93 in Calm   1.0 mph 48% 0.00 in WeatherDisplay:10.37 W/m2 SCT
17:40 81.4 °F 59.8 °F 29.93 in Calm   1.0 mph 48% 0.00 in WeatherDisplay:10.37 W/m2 SCT
17:50 80.8 °F 60.4 °F 29.93 in Calm   1.0 mph 50% 0.00 in WeatherDisplay:10.37 W/m2 SCT
18:00 80.8 °F 61.0 °F 29.93 in Calm   3.0 mph 51% 0.00 in WeatherDisplay:10.37 W/m2 SCT
18:10 80.6 °F 61.4 °F 29.93 in Calm   1.0 mph 52% 0.00 in WeatherDisplay:10.37 W/m2 SCT
18:20 79.8 °F 60.0 °F 29.93 in Calm     51% 0.00 in WeatherDisplay:10.37 W/m2 SCT
18:30 78.9 °F 60.8 °F 29.93 in Calm     54% 0.00 in WeatherDisplay:10.37 W/m2 SCT
18:40 77.5 °F 61.1 °F 29.93 in Calm     57% 0.00 in WeatherDisplay:10.37 W/m2 SCT
18:50 76.7 °F 61.8 °F 29.93 in Calm     60% 0.00 in WeatherDisplay:10.37 W/m2 SCT
19:00 76.5 °F 61.6 °F 29.93 in Calm   1.0 mph 60% 0.00 in WeatherDisplay:10.37 W/m2 SCT
19:10 76.6 °F 61.2 °F 29.93 in Calm   1.0 mph 59% 0.00 in WeatherDisplay:10.37 W/m2 SCT
19:20 76.8 °F 60.4 °F 29.93 in Calm     57% 0.00 in WeatherDisplay:10.37 W/m2 SCT
19:30 76.6 °F 60.7 °F 29.93 in Calm   1.0 mph 58% 0.00 in WeatherDisplay:10.37 W/m2 SCT
19:40 76.5 °F 61.1 °F 29.93 in Calm     59% 0.00 in WeatherDisplay:10.37 W/m2 SCT
19:50 76.2 °F 60.3 °F 29.94 in Calm     58% 0.00 in WeatherDisplay:10.37 W/m2 SCT
20:00 75.9 °F 59.6 °F 29.94 in Calm     57% 0.00 in WeatherDisplay:10.37 W/m2 SCT
20:10 75.5 °F 60.6 °F 29.94 in Calm     60% 0.00 in WeatherDisplay:10.37 W/m2 SCT
20:20 75.1 °F 59.8 °F 29.94 in Calm     59% 0.00 in WeatherDisplay:10.37 W/m2 SCT
20:30 74.7 °F 59.0 °F 29.95 in Calm     58% 0.00 in WeatherDisplay:10.37 W/m2 SCT
20:40 74.4 °F 58.7 °F 29.95 in Calm     58% 0.00 in WeatherDisplay:10.37 W/m2 SCT
20:50 74.0 °F 59.2 °F 29.95 in Calm     60% 0.00 in WeatherDisplay:10.37 W/m2 SCT
21:01 73.5 °F 58.8 °F 29.95 in Calm     60% 0.00 in WeatherDisplay:10.37 W/m2 SCT
21:10 73.1 °F 58.8 °F 29.95 in Calm     61% 0.00 in WeatherDisplay:10.37 W/m2 SCT
21:20 72.6 °F 58.8 °F 29.96 in Calm     62% 0.00 in WeatherDisplay:10.37 W/m2 SCT
21:30 72.1 °F 59.3 °F 29.96 in Calm     64% 0.00 in WeatherDisplay:10.37 W/m2 SCT
21:40 71.6 °F 59.2 °F 29.96 in Calm     65% 0.00 in WeatherDisplay:10.37 W/m2 SCT
21:50 71.2 °F 59.3 °F 29.97 in Calm     66% 0.00 in WeatherDisplay:10.37 W/m2 SCT
22:00 70.8 °F 60.1 °F 29.97 in Calm     69% 0.00 in WeatherDisplay:10.37 W/m2 SCT
22:10 70.4 °F 60.9 °F 29.98 in Calm     72% 0.00 in WeatherDisplay:10.37 W/m2 SCT
22:20 69.9 °F 60.8 °F 29.98 in Calm     73% 0.00 in WeatherDisplay:10.37 W/m2 SCT
22:30 69.4 °F 60.8 °F 29.99 in Calm     74% 0.00 in WeatherDisplay:10.37 W/m2 SCT
22:40 68.9 °F 60.3 °F 29.99 in Calm     74% 0.00 in WeatherDisplay:10.37 W/m2 SCT
22:50 68.5 °F 60.7 °F 30.00 in Calm     76% 0.00 in WeatherDisplay:10.37 W/m2 SCT
23:00 68.2 °F 60.8 °F 30.00 in Calm     77% 0.00 in WeatherDisplay:10.37 W/m2 SCT
23:10 67.9 °F 60.8 °F 30.01 in Calm     78% 0.00 in WeatherDisplay:10.37 W/m2 SCT
23:21 67.6 °F 60.5 °F 30.01 in Calm     78% 0.00 in WeatherDisplay:10.37 W/m2 SCT
23:30 67.3 °F 60.5 °F 30.01 in Calm     79% 0.00 in WeatherDisplay:10.37 W/m2 SCT
23:40 66.9 °F 60.2 °F 30.01 in Calm     79% 0.00 in WeatherDisplay:10.37 W/m2 SCT
23:50 66.7 °F 60.3 °F 30.01 in Calm     80% 0.00 in WeatherDisplay:10.37 W/m2 SCT
Piedmont Bend
Compliments of Weather Underground - 4 mb